Omura, Japan
Current Conditions -  °F | °C
As of 12:00 PM on Wednesday 22 Oct 2014 (Local Time) from RJFU Reporting Station
Broken Clouds Broken Clouds  
Wind Chill: 72°   Ceiling: 6000
Heat Index: 72°   Visibility: 6mi
Dew Point: 64°   Wind: 15mph
Humidity: 78%   Direction: 340°NNW
Pressure: 29.8"   Gusts: NA
Location:  32.91°N, 129.95°E
Report Text: RJFU 220300Z 34013KT 9999 FEW010 SCT035 BKN060 22/18 Q1009
Loading
Personal Weather Stations






























Interactive Weather Map
Tropical Storm Tracking
New forecast layout! Learn more

10-Day Weather Forecast

Advertisements
Track Severe Weather on mobile